Houston's Hourly Summary for Wednesday, March 15, 2017
Hour Temp
(f)
RH
(%)
Solar Rad.
(MJ/m2)
Rainfall
(in)
Wind
(mph)
3/15/2017 12:00 AM 50 85 0 0 0
3/15/2017 1:00 AM 49 98 0 0 0
3/15/2017 2:00 AM 48 99 0 0 0
3/15/2017 3:00 AM 47 99 0 0 0
3/15/2017 4:00 AM 46 99 0 0 0
3/15/2017 5:00 AM 46 99 0 0 0
3/15/2017 6:00 AM 46 99 0 0 0
3/15/2017 7:00 AM 45 99 0 0 0
3/15/2017 8:00 AM 46 99 0.06 0 0.01
3/15/2017 9:00 AM 52 88 0.28 0 3.75
3/15/2017 10:00 AM 56 74 1.17 0 7.52
3/15/2017 11:00 AM 59 69 1.95 0 9.12
3/15/2017 12:00 PM 60 68 2.16 0 9.22
3/15/2017 1:00 PM 62 63 2.45 0 8.94
3/15/2017 2:00 PM 62 65 2.19 0 8.95
3/15/2017 3:00 PM 63 62 2.33 0 8.5
3/15/2017 4:00 PM 63 63 2.19 0 8.68
3/15/2017 5:00 PM 62 63 2.01 0 9.15
3/15/2017 6:00 PM 61 67 1.28 0 8.65
3/15/2017 7:00 PM 60 69 0.55 0 8.52
3/15/2017 8:00 PM 58 77 0.04 0 6.71
3/15/2017 9:00 PM 57 81 0 0 4.55
3/15/2017 10:00 PM 56 85 0 0 3.51
3/15/2017 11:00 PM 57 83 0 0 4.2
Data Summary 54 81 18.66 0.00 4.58